Time;durP1;ratioP1;P1;durP2;ratioP2;P2;SDS_P1;SDS_P2;PMS_P1;PMS_P2;Temp;Humidity;BMP_temperature;BMP_pressure;BME280_temperature;BME280_humidity;BME280_pressure;Samples;Min_cycle;Max_cycle;Signal;HPM_P1;HPM_P2
2023/09/27 00:00:13;;;;;;;239.00;88.40;;;;;;;;;;4994584;28;20410;-48
2023/09/27 00:02:40;;;;;;;239.80;90.03;;;;;;;;;;4993820;28;20966;-47
2023/09/27 00:05:07;;;;;;;239.30;89.50;;;;;;;;;;4994095;28;20409;-47
2023/09/27 00:07:37;;;;;;;242.07;93.60;;;;;;;;;;4993804;28;20432;-47
2023/09/27 00:10:06;;;;;;;235.70;85.47;;;;;;;;;;4992011;28;20432;-48
2023/09/27 00:12:32;;;;;;;238.27;89.87;;;;;;;;;;4990028;28;20511;-48
2023/09/27 00:15:01;;;;;;;237.50;85.77;;;;;;;;;;4990234;28;20436;-47
2023/09/27 00:17:28;;;;;;;235.70;84.53;;;;;;;;;;4992815;28;20466;-48
2023/09/27 00:19:54;;;;;;;237.97;88.07;;;;;;;;;;4993742;28;20403;-47
2023/09/27 00:22:20;;;;;;;239.77;90.47;;;;;;;;;;4993357;28;20527;-46
2023/09/27 00:24:46;;;;;;;239.27;90.97;;;;;;;;;;4992029;28;20505;-47
2023/09/27 00:27:12;;;;;;;239.63;89.73;;;;;;;;;;4990100;28;20417;-49
2023/09/27 00:29:38;;;;;;;243.37;93.00;;;;;;;;;;4988655;28;20412;-48
2023/09/27 00:32:04;;;;;;;236.87;88.17;;;;;;;;;;4987398;28;20434;-48
2023/09/27 00:34:30;;;;;;;237.30;85.70;;;;;;;;;;4992308;28;20418;-48
2023/09/27 00:36:56;;;;;;;239.07;88.47;;;;;;;;;;4994127;28;20454;-48
2023/09/27 00:39:22;;;;;;;240.33;89.63;;;;;;;;;;4991638;28;20491;-49
2023/09/27 00:41:48;;;;;;;239.00;88.93;;;;;;;;;;4989765;28;20429;-48
2023/09/27 00:44:14;;;;;;;235.97;85.17;;;;;;;;;;4993107;28;20415;-49
2023/09/27 00:46:40;;;;;;;236.37;86.77;;;;;;;;;;4993283;28;20399;-48
2023/09/27 00:49:08;;;;;;;234.70;85.17;;;;;;;;;;4993149;28;20407;-48
2023/09/27 00:51:35;;;;;;;235.27;83.97;;;;;;;;;;4984905;28;20467;-49
2023/09/27 00:54:01;;;;;;;239.53;89.13;;;;;;;;;;4993089;28;20435;-48
2023/09/27 00:56:27;;;;;;;234.90;84.07;;;;;;;;;;4992858;28;20414;-47
2023/09/27 00:58:54;;;;;;;236.30;86.27;;;;;;;;;;4992958;28;20415;-49
2023/09/27 01:01:20;;;;;;;239.33;88.37;;;;;;;;;;4992772;28;20825;-48
2023/09/27 01:03:47;;;;;;;239.23;88.90;;;;;;;;;;4992572;28;20406;-49
2023/09/27 01:06:13;;;;;;;236.57;85.27;;;;;;;;;;4991103;28;20401;-47
2023/09/27 01:08:39;;;;;;;236.30;88.20;;;;;;;;;;4989595;28;20425;-48
2023/09/27 01:11:06;;;;;;;237.50;87.87;;;;;;;;;;4992485;28;20857;-47
2023/09/27 01:13:32;;;;;;;236.43;85.23;;;;;;;;;;4992863;28;20800;-48
2023/09/27 01:15:58;;;;;;;237.83;89.77;;;;;;;;;;4992831;28;20475;-48
2023/09/27 01:18:26;;;;;;;238.17;87.93;;;;;;;;;;4992552;28;21004;-47
2023/09/27 01:20:52;;;;;;;240.30;89.10;;;;;;;;;;4991047;28;20407;-47
2023/09/27 01:23:18;;;;;;;240.83;91.57;;;;;;;;;;4989821;28;20437;-48
2023/09/27 01:25:44;;;;;;;236.33;89.13;;;;;;;;;;4992693;28;20423;-47
2023/09/27 01:28:11;;;;;;;234.67;84.57;;;;;;;;;;4992700;28;20448;-49
2023/09/27 01:30:38;;;;;;;241.87;89.87;;;;;;;;;;4992329;28;20429;-47
2023/09/27 01:33:05;;;;;;;238.23;88.20;;;;;;;;;;4992445;28;20436;-49
2023/09/27 01:35:31;;;;;;;236.77;85.70;;;;;;;;;;4992502;28;20412;-47
2023/09/27 01:37:57;;;;;;;237.27;87.17;;;;;;;;;;4992284;28;20506;-49
2023/09/27 01:40:26;;;;;;;237.57;87.37;;;;;;;;;;4987697;28;20834;-48
2023/09/27 01:42:53;;;;;;;231.53;85.57;;;;;;;;;;4986185;28;20841;-47
2023/09/27 01:45:19;;;;;;;236.07;87.27;;;;;;;;;;4984383;28;20811;-47
2023/09/27 01:47:45;;;;;;;233.00;83.37;;;;;;;;;;4992346;28;20412;-48
2023/09/27 01:50:12;;;;;;;236.90;85.77;;;;;;;;;;4992251;28;20471;-48
2023/09/27 01:52:38;;;;;;;238.87;88.80;;;;;;;;;;4992568;28;20474;-49
2023/09/27 01:55:04;;;;;;;235.97;85.60;;;;;;;;;;4992371;28;20447;-48
2023/09/27 01:57:30;;;;;;;234.60;89.20;;;;;;;;;;4992107;28;20495;-48
2023/09/27 01:59:56;;;;;;;235.33;88.23;;;;;;;;;;4990921;28;20926;-49
2023/09/27 02:02:22;;;;;;;234.47;86.00;;;;;;;;;;4990620;28;20438;-49
2023/09/27 02:04:48;;;;;;;233.47;85.17;;;;;;;;;;4989288;28;20851;-47
2023/09/27 02:07:14;;;;;;;236.47;86.70;;;;;;;;;;4987511;28;20774;-48
2023/09/27 02:09:40;;;;;;;237.87;87.87;;;;;;;;;;4989706;28;20781;-47
2023/09/27 02:12:06;;;;;;;233.97;83.23;;;;;;;;;;4988491;28;20792;-48
2023/09/27 02:14:32;;;;;;;236.03;85.37;;;;;;;;;;4992070;28;20465;-48
2023/09/27 02:16:58;;;;;;;236.80;86.93;;;;;;;;;;4990694;28;20998;-48
2023/09/27 02:19:24;;;;;;;236.63;87.37;;;;;;;;;;4989100;28;20911;-47
2023/09/27 02:21:50;;;;;;;239.47;90.93;;;;;;;;;;4987365;28;20422;-47
2023/09/27 02:24:16;;;;;;;234.47;83.40;;;;;;;;;;4985918;28;20441;-47
2023/09/27 02:26:43;;;;;;;225.37;86.13;;;;;;;;;;4988221;28;20427;-48
2023/09/27 02:29:09;;;;;;;231.30;88.23;;;;;;;;;;4988733;28;20405;-48
2023/09/27 02:31:35;;;;;;;230.43;88.97;;;;;;;;;;4991751;28;20413;-49
2023/09/27 02:34:01;;;;;;;227.83;85.63;;;;;;;;;;4992037;28;20405;-48
2023/09/27 02:36:27;;;;;;;229.33;85.70;;;;;;;;;;4991801;28;20441;-49
2023/09/27 02:38:53;;;;;;;228.47;87.20;;;;;;;;;;4985632;28;20472;-48
2023/09/27 02:41:19;;;;;;;230.53;86.07;;;;;;;;;;4991822;28;20422;-49
2023/09/27 02:43:45;;;;;;;236.00;92.47;;;;;;;;;;4991872;28;20914;-48
2023/09/27 02:46:11;;;;;;;229.07;83.27;;;;;;;;;;4991946;28;20991;-49
2023/09/27 02:48:37;;;;;;;232.97;88.77;;;;;;;;;;4991786;28;20509;-48
2023/09/27 02:51:03;;;;;;;252.03;91.93;;;;;;;;;;4991677;28;20930;-49
2023/09/27 02:53:29;;;;;;;246.80;84.33;;;;;;;;;;4991639;28;20469;-48
2023/09/27 02:55:55;;;;;;;250.93;91.30;;;;;;;;;;4991930;28;20840;-48
2023/09/27 02:58:22;;;;;;;253.50;87.30;;;;;;;;;;4992594;28;20882;-47
2023/09/27 03:00:48;;;;;;;258.87;94.93;;;;;;;;;;4992351;28;20408;-49
2023/09/27 03:03:14;;;;;;;252.27;88.73;;;;;;;;;;4994941;28;20799;-47
2023/09/27 03:05:40;;;;;;;257.33;92.33;;;;;;;;;;4995388;28;20436;-48
2023/09/27 03:08:07;;;;;;;252.27;86.43;;;;;;;;;;4995157;28;20411;-48
2023/09/27 03:10:37;;;;;;;262.47;96.20;;;;;;;;;;4994974;28;20422;-48
2023/09/27 03:13:04;;;;;;;256.77;92.83;;;;;;;;;;4993942;28;20492;-48
2023/09/27 03:15:31;;;;;;;252.70;87.20;;;;;;;;;;4992665;28;20417;-48
2023/09/27 03:17:57;;;;;;;255.03;92.50;;;;;;;;;;4990515;28;20547;-48
2023/09/27 03:20:24;;;;;;;251.87;89.17;;;;;;;;;;4988843;28;20413;-49
2023/09/27 03:22:50;;;;;;;250.63;86.87;;;;;;;;;;4994506;28;20431;-48
2023/09/27 03:25:19;;;;;;;250.63;85.00;;;;;;;;;;4993809;28;20454;-48
2023/09/27 03:27:46;;;;;;;250.77;86.73;;;;;;;;;;4994783;28;20415;-47
2023/09/27 03:30:12;;;;;;;250.03;86.77;;;;;;;;;;4994524;28;20417;-48
2023/09/27 03:32:38;;;;;;;247.70;85.00;;;;;;;;;;4994238;28;20499;-47
2023/09/27 03:35:04;;;;;;;246.70;85.30;;;;;;;;;;4994599;28;20412;-48
2023/09/27 03:37:30;;;;;;;248.07;88.47;;;;;;;;;;4994253;28;20509;-47
2023/09/27 03:39:56;;;;;;;247.07;85.20;;;;;;;;;;4994583;28;20947;-48
2023/09/27 03:42:23;;;;;;;246.93;85.60;;;;;;;;;;4990862;28;20953;-48
2023/09/27 03:44:49;;;;;;;244.93;83.93;;;;;;;;;;4986689;28;20429;-49
2023/09/27 03:47:15;;;;;;;247.27;84.93;;;;;;;;;;4991921;28;20414;-48
2023/09/27 03:49:41;;;;;;;244.57;83.97;;;;;;;;;;4994405;28;20468;-48
2023/09/27 03:52:08;;;;;;;245.07;83.43;;;;;;;;;;4993657;28;20479;-48
2023/09/27 03:54:34;;;;;;;243.60;82.73;;;;;;;;;;4987380;28;20414;-49
2023/09/27 03:57:00;;;;;;;245.47;83.77;;;;;;;;;;4994369;28;20513;-48
2023/09/27 03:59:26;;;;;;;247.97;86.40;;;;;;;;;;4993869;28;20492;-48
2023/09/27 04:01:52;;;;;;;245.90;84.57;;;;;;;;;;4993875;28;20427;-48
2023/09/27 04:04:18;;;;;;;245.97;84.67;;;;;;;;;;4993981;28;20406;-47
2023/09/27 04:06:45;;;;;;;247.27;87.90;;;;;;;;;;4993986;28;20447;-47
2023/09/27 04:09:12;;;;;;;247.97;89.37;;;;;;;;;;4992926;28;20443;-48
2023/09/27 04:11:38;;;;;;;248.73;89.17;;;;;;;;;;4992235;28;20450;-49
2023/09/27 04:14:05;;;;;;;244.57;84.37;;;;;;;;;;4993843;28;20487;-47
2023/09/27 04:16:32;;;;;;;244.97;83.37;;;;;;;;;;4993855;28;20418;-47
2023/09/27 04:18:58;;;;;;;247.27;84.97;;;;;;;;;;4994029;28;20401;-49
2023/09/27 04:21:25;;;;;;;246.83;84.77;;;;;;;;;;4993533;28;20405;-47
2023/09/27 04:23:57;;;;;;;244.97;84.60;;;;;;;;;;4994216;28;20439;-47
2023/09/27 04:26:23;;;;;;;247.30;87.03;;;;;;;;;;4993801;28;20429;-47
2023/09/27 04:28:53;;;;;;;248.13;88.07;;;;;;;;;;4993395;28;20492;-47
2023/09/27 04:31:19;;;;;;;246.10;85.87;;;;;;;;;;4993205;28;20782;-47
2023/09/27 04:33:47;;;;;;;246.90;85.20;;;;;;;;;;4992324;28;20439;-48
2023/09/27 04:36:15;;;;;;;245.17;83.93;;;;;;;;;;4992758;28;20411;-49
2023/09/27 04:38:44;;;;;;;245.50;84.40;;;;;;;;;;4993329;28;20467;-48
2023/09/27 04:41:11;;;;;;;247.53;87.43;;;;;;;;;;4993235;28;20439;-47
2023/09/27 04:43:37;;;;;;;252.57;92.00;;;;;;;;;;4993080;28;20542;-47
2023/09/27 04:46:03;;;;;;;248.67;89.13;;;;;;;;;;4993473;28;20435;-49
2023/09/27 04:48:29;;;;;;;247.93;88.87;;;;;;;;;;4993059;28;20448;-48
2023/09/27 04:50:59;;;;;;;249.70;89.77;;;;;;;;;;4992154;28;20782;-48
2023/09/27 04:53:25;;;;;;;247.73;89.57;;;;;;;;;;4993084;28;20849;-48
2023/09/27 04:55:53;;;;;;;248.27;88.57;;;;;;;;;;4992912;28;20524;-48
2023/09/27 04:58:19;;;;;;;245.43;84.37;;;;;;;;;;4992987;28;20469;-48
2023/09/27 05:00:45;;;;;;;249.03;87.43;;;;;;;;;;4992704;28;20646;-48
2023/09/27 05:03:11;;;;;;;244.37;84.07;;;;;;;;;;4992204;28;20425;-48
2023/09/27 05:05:37;;;;;;;246.57;86.33;;;;;;;;;;4993014;28;20461;-49
2023/09/27 05:08:03;;;;;;;246.97;84.73;;;;;;;;;;4992953;28;20418;-49
2023/09/27 05:10:29;;;;;;;249.73;88.90;;;;;;;;;;4992444;28;20423;-49
2023/09/27 05:12:55;;;;;;;243.97;82.30;;;;;;;;;;4992919;28;20431;-49
2023/09/27 05:15:21;;;;;;;246.57;85.37;;;;;;;;;;4992955;28;20413;-48
2023/09/27 05:17:47;;;;;;;247.27;85.37;;;;;;;;;;4992510;28;20473;-48
2023/09/27 05:20:13;;;;;;;245.37;83.07;;;;;;;;;;4992259;28;20454;-48
2023/09/27 05:22:39;;;;;;;244.70;83.53;;;;;;;;;;4992479;28;20421;-48
2023/09/27 05:25:07;;;;;;;244.93;84.07;;;;;;;;;;4992520;28;21034;-48
2023/09/27 05:27:34;;;;;;;246.10;83.00;;;;;;;;;;4992602;28;20413;-49
2023/09/27 05:30:00;;;;;;;246.00;85.30;;;;;;;;;;4992491;28;20474;-48
2023/09/27 05:32:27;;;;;;;247.40;84.87;;;;;;;;;;4992198;28;20446;-47
2023/09/27 05:34:53;;;;;;;246.27;83.73;;;;;;;;;;4992413;28;20482;-47
2023/09/27 05:37:20;;;;;;;248.53;86.93;;;;;;;;;;4992263;28;20460;-47
2023/09/27 05:39:46;;;;;;;245.93;82.40;;;;;;;;;;4991010;28;20412;-48
2023/09/27 05:42:12;;;;;;;246.63;83.97;;;;;;;;;;4991929;28;20507;-48
2023/09/27 05:44:37;;;;;;;246.17;85.37;;;;;;;;;;4992037;28;20433;-48
2023/09/27 05:47:03;;;;;;;243.77;80.57;;;;;;;;;;4991847;28;20451;-48
2023/09/27 05:49:31;;;;;;;244.97;82.07;;;;;;;;;;4989880;28;20447;-47
2023/09/27 05:51:57;;;;;;;244.37;83.03;;;;;;;;;;4992297;28;20775;-49
2023/09/27 05:54:23;;;;;;;245.40;82.47;;;;;;;;;;4992255;28;20443;-48
2023/09/27 05:56:51;;;;;;;244.93;82.87;;;;;;;;;;4992179;28;20420;-48
2023/09/27 05:59:18;;;;;;;248.03;86.93;;;;;;;;;;4991644;28;20894;-48
2023/09/27 06:01:44;;;;;;;245.47;84.47;;;;;;;;;;4992190;28;20428;-48
2023/09/27 06:04:10;;;;;;;244.67;80.83;;;;;;;;;;4990012;28;20761;-47
2023/09/27 06:06:37;;;;;;;245.63;83.57;;;;;;;;;;4992131;28;20963;-47
2023/09/27 06:09:09;;;;;;;244.50;83.50;;;;;;;;;;4992091;28;20417;-48
2023/09/27 06:11:35;;;;;;;244.57;82.90;;;;;;;;;;4984179;28;20424;-48
2023/09/27 06:14:01;;;;;;;243.13;82.37;;;;;;;;;;4992111;28;20870;-48
2023/09/27 06:16:28;;;;;;;244.30;83.23;;;;;;;;;;4992074;28;20467;-48
2023/09/27 06:18:55;;;;;;;245.90;85.50;;;;;;;;;;4991897;28;20521;-47
2023/09/27 06:21:21;;;;;;;248.80;88.40;;;;;;;;;;4991740;28;20406;-48
2023/09/27 06:23:46;;;;;;;246.87;87.67;;;;;;;;;;4992029;28;20888;-48
2023/09/27 06:26:12;;;;;;;246.53;86.10;;;;;;;;;;4991974;28;20419;-49
2023/09/27 06:28:39;;;;;;;248.30;89.67;;;;;;;;;;4991613;28;20459;-47
2023/09/27 06:31:08;;;;;;;247.07;85.77;;;;;;;;;;4989827;28;20409;-49
2023/09/27 06:33:34;;;;;;;248.67;88.50;;;;;;;;;;4982951;28;20442;-48
2023/09/27 06:36:00;;;;;;;250.47;91.70;;;;;;;;;;4995867;28;20457;-49
2023/09/27 06:38:26;;;;;;;251.50;93.67;;;;;;;;;;4996192;28;21023;-47
2023/09/27 06:40:54;;;;;;;250.57;92.17;;;;;;;;;;4995484;28;20400;-49
2023/09/27 06:43:20;;;;;;;255.87;97.87;;;;;;;;;;4995056;28;20925;-48
2023/09/27 06:45:46;;;;;;;252.27;91.73;;;;;;;;;;4995788;28;20466;-48
2023/09/27 06:48:12;;;;;;;252.83;93.53;;;;;;;;;;4995247;28;20405;-49
2023/09/27 06:50:41;;;;;;;254.63;96.90;;;;;;;;;;4995196;28;20417;-47
2023/09/27 06:53:07;;;;;;;255.97;98.93;;;;;;;;;;4995342;28;20939;-48
2023/09/27 06:55:33;;;;;;;256.17;97.93;;;;;;;;;;4995288;28;20438;-49
2023/09/27 06:57:59;;;;;;;250.90;94.80;;;;;;;;;;4994804;28;20976;-47
2023/09/27 07:00:25;;;;;;;255.67;101.70;;;;;;;;;;4994164;28;20416;-48
2023/09/27 07:02:52;;;;;;;252.67;95.57;;;;;;;;;;4994924;28;20485;-48
2023/09/27 07:05:20;;;;;;;254.60;98.37;;;;;;;;;;4995041;28;20417;-49
2023/09/27 07:07:47;;;;;;;256.17;99.87;;;;;;;;;;4995142;28;20497;-49
2023/09/27 07:10:13;;;;;;;250.07;93.60;;;;;;;;;;4994750;28;20499;-48
2023/09/27 07:12:39;;;;;;;250.47;94.60;;;;;;;;;;4994790;28;20462;-48
2023/09/27 07:15:12;;;;;;;259.07;103.73;;;;;;;;;;4994950;28;20408;-48
2023/09/27 07:17:38;;;;;;;255.43;97.80;;;;;;;;;;4986404;28;20828;-48
2023/09/27 07:22:45;;;;;;;254.20;95.20;;;;;;;;;;4988360;28;20438;-48
2023/09/27 07:25:16;;;;;;;253.60;97.63;;;;;;;;;;4994661;28;20414;-47
2023/09/27 07:27:43;;;;;;;251.60;95.83;;;;;;;;;;4993115;28;20408;-47
2023/09/27 07:30:17;;;;;;;254.87;97.10;;;;;;;;;;4988913;28;20448;-48
2023/09/27 07:32:43;;;;;;;256.63;101.10;;;;;;;;;;4990007;28;20544;-49
2023/09/27 07:35:11;;;;;;;253.33;96.77;;;;;;;;;;4994467;28;20422;-48
2023/09/27 07:37:37;;;;;;;261.20;104.23;;;;;;;;;;4994122;28;20471;-47
2023/09/27 07:40:10;;;;;;;252.47;97.83;;;;;;;;;;4989741;28;20512;-48
2023/09/27 07:42:36;;;;;;;250.40;91.57;;;;;;;;;;4993916;28;20466;-49
2023/09/27 07:45:03;;;;;;;252.20;95.43;;;;;;;;;;4993921;28;20426;-48
2023/09/27 07:47:29;;;;;;;254.87;99.63;;;;;;;;;;4994349;28;20914;-47
2023/09/27 07:49:55;;;;;;;249.17;91.70;;;;;;;;;;4988732;28;20496;-47
2023/09/27 07:52:21;;;;;;;249.70;94.07;;;;;;;;;;4992452;28;20454;-48
2023/09/27 07:54:47;;;;;;;252.93;97.90;;;;;;;;;;4994180;28;20473;-48
2023/09/27 07:57:14;;;;;;;253.43;96.73;;;;;;;;;;4993885;28;20464;-47
2023/09/27 07:59:40;;;;;;;248.03;93.60;;;;;;;;;;4993999;28;20418;-49
2023/09/27 08:02:09;;;;;;;250.47;95.33;;;;;;;;;;4993743;28;20437;-47
2023/09/27 08:04:38;;;;;;;254.37;95.03;;;;;;;;;;4986123;28;20402;-48
2023/09/27 08:07:04;;;;;;;254.73;96.63;;;;;;;;;;4993942;28;20409;-49
2023/09/27 08:09:31;;;;;;;256.47;99.27;;;;;;;;;;4992395;28;20986;-48
2023/09/27 08:11:57;;;;;;;255.13;98.77;;;;;;;;;;4993449;28;20439;-48
2023/09/27 08:14:23;;;;;;;254.03;98.73;;;;;;;;;;4993761;28;20499;-48
2023/09/27 08:16:50;;;;;;;254.03;102.00;;;;;;;;;;4993550;28;20853;-48
2023/09/27 08:19:16;;;;;;;257.17;100.33;;;;;;;;;;4988534;28;20510;-48
2023/09/27 08:21:42;;;;;;;255.47;99.63;;;;;;;;;;4993237;28;20466;-47
2023/09/27 08:24:08;;;;;;;253.50;99.17;;;;;;;;;;4993358;28;20975;-47
2023/09/27 08:26:35;;;;;;;258.53;103.03;;;;;;;;;;4985691;28;20482;-48
2023/09/27 08:29:01;;;;;;;254.83;102.87;;;;;;;;;;4986606;28;20405;-48
2023/09/27 08:31:27;;;;;;;257.20;105.73;;;;;;;;;;4992482;28;20415;-48
2023/09/27 08:33:53;;;;;;;256.20;102.07;;;;;;;;;;4993370;28;21012;-49
2023/09/27 08:36:19;;;;;;;255.03;101.63;;;;;;;;;;4993174;28;20475;-49
2023/09/27 08:38:45;;;;;;;253.63;98.23;;;;;;;;;;4993068;28;20475;-48
2023/09/27 08:41:12;;;;;;;254.67;103.90;;;;;;;;;;4993045;28;20541;-48
2023/09/27 08:43:39;;;;;;;249.93;96.90;;;;;;;;;;4993142;28;20474;-49
2023/09/27 08:46:05;;;;;;;257.37;106.60;;;;;;;;;;4993266;28;20797;-48
2023/09/27 08:48:32;;;;;;;255.97;104.23;;;;;;;;;;4993162;28;20821;-48
2023/09/27 08:51:03;;;;;;;256.00;106.73;;;;;;;;;;4992974;28;20408;-49
2023/09/27 08:53:31;;;;;;;256.97;107.93;;;;;;;;;;4992878;28;20974;-48
2023/09/27 08:55:57;;;;;;;255.80;106.60;;;;;;;;;;4992436;28;20411;-49
2023/09/27 08:58:25;;;;;;;255.03;102.93;;;;;;;;;;4992864;28;20466;-49
2023/09/27 09:00:52;;;;;;;257.07;105.47;;;;;;;;;;4992867;28;21031;-48
2023/09/27 09:03:18;;;;;;;252.13;100.50;;;;;;;;;;4992688;28;20427;-48
2023/09/27 09:05:47;;;;;;;253.27;102.23;;;;;;;;;;4992826;28;20448;-48
2023/09/27 09:08:14;;;;;;;253.80;101.23;;;;;;;;;;4992773;28;20450;-49
2023/09/27 09:10:40;;;;;;;265.57;119.30;;;;;;;;;;4992516;28;20440;-47
2023/09/27 09:13:06;;;;;;;258.93;111.60;;;;;;;;;;4992647;28;20428;-47
2023/09/27 09:15:35;;;;;;;254.23;104.93;;;;;;;;;;4992696;28;20435;-48
2023/09/27 09:18:06;;;;;;;258.10;108.87;;;;;;;;;;4991986;28;20456;-49
2023/09/27 09:20:33;;;;;;;257.13;107.53;;;;;;;;;;4992220;28;20411;-48
2023/09/27 09:23:03;;;;;;;257.43;111.53;;;;;;;;;;4989288;28;20472;-48
2023/09/27 09:25:29;;;;;;;255.20;107.73;;;;;;;;;;4987679;28;20444;-49
2023/09/27 09:28:07;;;;;;;256.47;111.80;;;;;;;;;;4985958;28;20495;-48
2023/09/27 09:30:40;;;;;;;257.63;116.97;;;;;;;;;;4992222;28;20951;-47
2023/09/27 09:33:24;;;;;;;259.40;119.83;;;;;;;;;;4992264;28;20457;-49
2023/09/27 09:35:51;;;;;;;256.10;114.67;;;;;;;;;;4986621;28;20408;-48
2023/09/27 09:38:29;;;;;;;257.87;120.80;;;;;;;;;;4992045;28;20468;-49
2023/09/27 09:41:00;;;;;;;257.10;119.90;;;;;;;;;;4992209;28;20449;-48
2023/09/27 09:43:33;;;;;;;255.23;120.90;;;;;;;;;;4991989;28;20514;-48
2023/09/27 09:46:00;;;;;;;256.57;129.57;;;;;;;;;;4992346;28;20411;-48
2023/09/27 09:48:26;;;;;;;257.03;130.37;;;;;;;;;;4992341;28;20416;-48
2023/09/27 09:50:55;;;;;;;259.80;133.57;;;;;;;;;;4990465;28;20427;-48
2023/09/27 09:53:22;;;;;;;254.97;127.13;;;;;;;;;;4987307;28;20447;-49
2023/09/27 09:55:49;;;;;;;256.10;131.17;;;;;;;;;;4990646;28;20475;-49
2023/09/27 09:58:21;;;;;;;258.87;130.97;;;;;;;;;;4990063;28;20481;-48
2023/09/27 10:00:49;;;;;;;258.73;135.57;;;;;;;;;;4991883;28;20443;-49
2023/09/27 10:03:20;;;;;;;256.03;135.83;;;;;;;;;;4990971;28;20644;-48
2023/09/27 10:05:50;;;;;;;259.03;144.03;;;;;;;;;;4986868;28;20467;-48
2023/09/27 10:08:17;;;;;;;256.40;136.30;;;;;;;;;;4993763;28;20435;-49
2023/09/27 10:10:42;;;;;;;267.83;153.37;;;;;;;;;;4992682;28;20844;-48
2023/09/27 10:13:10;;;;;;;264.93;148.13;;;;;;;;;;4992701;28;20459;-49
2023/09/27 10:15:37;;;;;;;256.13;141.20;;;;;;;;;;4993365;28;20962;-48
2023/09/27 10:18:21;;;;;;;255.53;136.57;;;;;;;;;;4992916;28;20459;-48
2023/09/27 10:21:07;;;;;;;262.87;142.27;;;;;;;;;;4991022;28;20435;-48
2023/09/27 10:23:45;;;;;;;255.33;138.87;;;;;;;;;;4984727;28;20448;-48
2023/09/27 10:26:23;;;;;;;255.27;136.40;;;;;;;;;;4986334;28;20517;-48
2023/09/27 10:29:16;;;;;;;257.23;143.77;;;;;;;;;;4986722;28;20444;-49
2023/09/27 10:31:57;;;;;;;254.30;140.73;;;;;;;;;;4979945;28;20459;-49
2023/09/27 10:34:26;;;;;;;255.30;140.33;;;;;;;;;;4988798;28;20424;-48
2023/09/27 10:36:55;;;;;;;261.77;152.03;;;;;;;;;;4981000;28;20429;-48
2023/09/27 10:39:21;;;;;;;258.40;145.97;;;;;;;;;;4992334;28;20907;-48
2023/09/27 10:41:49;;;;;;;261.97;150.03;;;;;;;;;;4986388;28;20414;-48
2023/09/27 10:44:36;;;;;;;254.63;148.33;;;;;;;;;;4991359;28;20458;-48
2023/09/27 10:47:03;;;;;;;257.63;148.47;;;;;;;;;;4994967;28;20386;-48
2023/09/27 10:49:33;;;;;;;255.50;149.50;;;;;;;;;;4995070;28;20445;-48
2023/09/27 10:51:59;;;;;;;256.37;147.20;;;;;;;;;;4987133;28;20978;-48
2023/09/27 10:54:28;;;;;;;256.23;151.73;;;;;;;;;;4994420;28;20493;-48
2023/09/27 10:56:56;;;;;;;257.53;155.30;;;;;;;;;;4994900;28;20420;-48
2023/09/27 10:59:28;;;;;;;256.63;156.83;;;;;;;;;;4992965;28;20457;-47
2023/09/27 11:02:03;;;;;;;259.90;161.37;;;;;;;;;;4993202;28;20495;-48
2023/09/27 11:04:33;;;;;;;262.07;163.90;;;;;;;;;;4994754;28;20415;-47
2023/09/27 11:06:59;;;;;;;257.73;156.50;;;;;;;;;;4995024;28;20411;-48
2023/09/27 11:09:27;;;;;;;263.67;156.77;;;;;;;;;;4993770;28;20386;-48
2023/09/27 11:11:54;;;;;;;252.87;147.43;;;;;;;;;;4994446;28;20417;-48
2023/09/27 11:14:33;;;;;;;257.50;153.70;;;;;;;;;;4991993;28;20886;-48
2023/09/27 11:17:14;;;;;;;257.27;153.43;;;;;;;;;;4994269;28;20515;-48
2023/09/27 11:19:40;;;;;;;256.13;150.67;;;;;;;;;;4994033;28;20385;-48
2023/09/27 11:22:06;;;;;;;258.37;153.73;;;;;;;;;;4994701;28;20406;-48
2023/09/27 11:24:40;;;;;;;256.07;148.63;;;;;;;;;;4993444;28;20383;-47
2023/09/27 11:27:06;;;;;;;260.03;152.60;;;;;;;;;;4994058;28;20758;-47
2023/09/27 11:29:32;;;;;;;254.63;143.87;;;;;;;;;;4992303;28;20487;-48
2023/09/27 11:31:58;;;;;;;257.13;148.53;;;;;;;;;;4994278;28;20904;-48
2023/09/27 11:34:24;;;;;;;255.40;147.97;;;;;;;;;;4994660;28;20435;-48
2023/09/27 11:36:51;;;;;;;257.10;148.77;;;;;;;;;;4994646;28;20412;-48
2023/09/27 11:39:18;;;;;;;254.67;144.73;;;;;;;;;;4994435;28;20527;-48
2023/09/27 11:41:45;;;;;;;258.43;147.33;;;;;;;;;;4994282;28;20559;-47
2023/09/27 11:44:18;;;;;;;260.13;151.40;;;;;;;;;;4994159;28;20963;-48
2023/09/27 11:46:44;;;;;;;255.87;141.17;;;;;;;;;;4993102;28;20427;-48
2023/09/27 11:49:10;;;;;;;256.80;146.53;;;;;;;;;;4994122;28;20404;-48
2023/09/27 11:51:36;;;;;;;257.63;147.33;;;;;;;;;;4993972;28;20788;-48
2023/09/27 11:54:03;;;;;;;258.10;149.47;;;;;;;;;;4993650;28;20455;-48
2023/09/27 11:56:29;;;;;;;256.87;148.50;;;;;;;;;;4993253;28;20914;-49
2023/09/27 11:58:55;;;;;;;258.97;151.90;;;;;;;;;;4993094;28;20463;-49
2023/09/27 12:01:20;;;;;;;255.90;149.77;;;;;;;;;;4993928;28;20900;-48
2023/09/27 12:03:46;;;;;;;255.57;146.80;;;;;;;;;;4994201;28;20943;-49
2023/09/27 12:06:12;;;;;;;258.57;151.13;;;;;;;;;;4994073;28;20904;-48
2023/09/27 12:08:38;;;;;;;264.17;152.70;;;;;;;;;;4993548;28;20776;-49
2023/09/27 12:11:04;;;;;;;255.47;140.70;;;;;;;;;;4992499;28;20431;-49
2023/09/27 12:13:30;;;;;;;257.37;142.80;;;;;;;;;;4993771;28;20443;-49
2023/09/27 12:15:56;;;;;;;258.00;143.97;;;;;;;;;;4993815;28;20412;-48
2023/09/27 12:18:23;;;;;;;258.77;142.07;;;;;;;;;;4993078;28;20983;-48
2023/09/27 12:20:49;;;;;;;263.50;148.67;;;;;;;;;;4992649;28;20436;-48
2023/09/27 12:23:15;;;;;;;259.90;147.90;;;;;;;;;;4993158;28;20447;-48
2023/09/27 12:25:42;;;;;;;256.67;144.90;;;;;;;;;;4993279;28;20443;-48
2023/09/27 12:28:08;;;;;;;259.33;152.30;;;;;;;;;;4993390;28;20404;-49
2023/09/27 12:30:34;;;;;;;258.80;149.77;;;;;;;;;;4981154;28;20429;-49
2023/09/27 12:33:01;;;;;;;255.77;150.53;;;;;;;;;;4991289;28;20452;-49
2023/09/27 12:35:27;;;;;;;255.43;152.27;;;;;;;;;;4990544;28;20432;-49
2023/09/27 12:37:53;;;;;;;256.57;155.23;;;;;;;;;;4993284;28;20599;-48
2023/09/27 12:40:19;;;;;;;257.70;159.90;;;;;;;;;;4993248;28;20404;-48
2023/09/27 12:42:45;;;;;;;258.77;160.57;;;;;;;;;;4983816;28;20433;-48
2023/09/27 12:45:11;;;;;;;255.57;158.07;;;;;;;;;;4993048;28;20398;-48
2023/09/27 12:47:37;;;;;;;255.53;154.03;;;;;;;;;;4991331;28;20428;-47
2023/09/27 12:50:03;;;;;;;257.93;158.67;;;;;;;;;;4991286;28;20462;-48
2023/09/27 12:52:29;;;;;;;263.80;166.90;;;;;;;;;;4989067;28;20430;-48
2023/09/27 12:54:55;;;;;;;261.57;163.03;;;;;;;;;;4989260;28;20439;-47
2023/09/27 12:57:21;;;;;;;256.70;156.20;;;;;;;;;;4989531;28;20798;-48
2023/09/27 12:59:47;;;;;;;267.80;170.47;;;;;;;;;;4986159;28;20420;-48
2023/09/27 13:02:13;;;;;;;261.40;164.30;;;;;;;;;;4988793;28;20871;-48
2023/09/27 13:04:39;;;;;;;264.13;170.50;;;;;;;;;;4989541;28;20420;-47
2023/09/27 13:07:05;;;;;;;261.27;162.87;;;;;;;;;;4989596;28;20949;-47
2023/09/27 13:09:31;;;;;;;259.33;157.93;;;;;;;;;;4985617;28;20414;-48
2023/09/27 13:11:57;;;;;;;260.83;159.80;;;;;;;;;;4990409;28;20885;-49
2023/09/27 13:14:23;;;;;;;259.63;153.40;;;;;;;;;;4990807;28;20418;-47
2023/09/27 13:16:49;;;;;;;260.20;153.07;;;;;;;;;;4984737;28;20765;-48
2023/09/27 13:19:15;;;;;;;260.77;150.20;;;;;;;;;;4985811;28;20897;-48
2023/09/27 13:21:41;;;;;;;255.73;142.37;;;;;;;;;;4990595;28;20495;-48
2023/09/27 13:24:08;;;;;;;258.23;146.07;;;;;;;;;;4988971;28;20458;-48
2023/09/27 13:26:34;;;;;;;256.23;142.17;;;;;;;;;;4989979;28;20414;-48
2023/09/27 13:29:00;;;;;;;258.37;144.10;;;;;;;;;;4992228;28;20416;-48
2023/09/27 13:31:31;;;;;;;263.03;146.27;;;;;;;;;;4989427;28;20443;-47
2023/09/27 13:33:57;;;;;;;256.57;140.70;;;;;;;;;;4991393;28;20471;-48
2023/09/27 13:36:23;;;;;;;254.57;135.97;;;;;;;;;;4992214;28;20460;-48
2023/09/27 13:38:51;;;;;;;257.93;136.13;;;;;;;;;;4991299;28;20455;-47
2023/09/27 13:41:17;;;;;;;257.80;137.93;;;;;;;;;;4991672;28;20935;-48
2023/09/27 13:43:43;;;;;;;253.13;129.17;;;;;;;;;;4992174;28;20443;-47
2023/09/27 13:46:09;;;;;;;259.83;134.60;;;;;;;;;;4988638;28;20479;-48
2023/09/27 13:48:36;;;;;;;256.00;129.63;;;;;;;;;;4990280;28;20919;-47
2023/09/27 13:51:02;;;;;;;256.47;136.97;;;;;;;;;;4991710;28;20424;-48
2023/09/27 13:53:28;;;;;;;256.43;130.93;;;;;;;;;;4989533;28;20454;-49
2023/09/27 13:55:54;;;;;;;261.97;133.43;;;;;;;;;;4992247;28;20400;-47
2023/09/27 13:58:19;;;;;;;258.47;133.43;;;;;;;;;;4991191;28;20534;-47
2023/09/27 14:00:45;;;;;;;255.13;124.80;;;;;;;;;;4992303;28;20408;-47